Scroll down
FLIGHT INFORMATION
Southern Air

SOO423

At Arrival Gate

KLAX
 EDDP
DATE: 2022-06-25
GATE: ICC9
GATE DEPARTURE: 12:45
TAKEOFF: 12:54
DATE: 2022-06-25
GATE:  -
LANDING: 23:16
GATE ARRIVAL: 23:21
FLIGHT DATA
Crew: 
Speed: 
501 kts
Altitude: 
35,039 ft
Stage Length: 
5,060.6 nm
Block Time: 
10.5 hrs
Flight Time: 
10.4 hrs
Fuel Used: 
187,515 lb
Cleared Route: KLAX BEALE BLIPP WINEN MLF MTU OCS CZI BIS HML YRL 5390N GW 5670N YDP AVUTI 5850N 5940N 5930N 5820N PIKIL MOGLO NIBOG BELZU REMSI BELOX TENSO DESIG ELNOD MAMUL EDUXO LAMIX EVKAL ROGAG AMVEL DOLAS ENITO DIBAL BUKUT LAMSO AMSAN NORTA ADMOS KENIG KOJEC EDDP
TRACK DATA
50,000 ft 1,000 kts
AIRCRAFT INFO AND CUMULATIVE STATS
Aircraft Type: 
B77LF
Registration: 
SELCAL: 
PRDS
MSN/LN: 
37988 / 1002
Operator: 
Total Flights: 
6
Total Block Time: 
41 hrs
Total Flight Time: 
39.6 hrs
Total Fuel Used: 
466,178 lb
DATALINK LOG | Newest first | Current as of: 2022-08-16 06:18:44
LABEL SEQUENCE CONTENT Dn/Up
QD341023:21 27.4▼ Dn
QC290523:16▼ Dn
2U2810EDDP 252320Z 13004KT CAVOK 20/16 Q1013 NOSIG▲ Up
2S2810EDDP▼ Dn
2U5339EDDP 252250Z 15004KT CAVOK 20/15 Q1013 NOSIG▲ Up
2S5339EDDP▼ Dn
UM204649CLEARED TO FL 350▲ Up
DM64639REQUEST FL 350 DUE TO A/C PERF▼ Dn
UM795257NO MATCHING CLEARANCE DATA AVAILABLE FROM ANSP▲ Up
UM255257REQUESTING OCEANIC CLRNC CT CYQX CS EP AVUTI FL 330 ETA 19:30 SPD M0.83▼ Dn
UM202042CLEARED TO FL 330▲ Up
DM62032REQUEST FL 330 DUE TO A/C PERF▼ Dn
QB063712:54▼ Dn
QA582912:45 215▼ Dn
A34214CLEARED TO EDDP VIA OSHNN1 BEALE Q842 WINEN MLF MTU OCS CZI BIS HML YRL 5300N/09000W GW 5600N/07000W YDP AVUTI 5800N/05000W 5900N/04000W 5900N/03000W 5800N/02000W PIKIL MOGLO NIBOG BELZU REMSI BELOX L603 LAMSO AMSAN NORTA ADMOS T959 KOJEC . SQUAWK 2654.▲ Up
2U4114KLAX 251253Z 23004KT 5SM BR OVC007 16/14 A2991 RMK AO2 SLP127 T01610144▲ Up
2U4114EDDP 251320Z VRB05KT CAVOK 28/16 Q1012 NOSIG▲ Up
2U4113EKCH 251320Z AUTO 15003KT 9999 FEW095/// SCT130/// 25/18 Q1013 TEMPO SHRA SCT040CB▲ Up
2U4113BIKF 251330Z 33016KT 300V360 9999 SCT025TCU 11/03 Q1017▲ Up
2U4112CYYR 251338Z 26016KT 15SM FEW025 SCT050 BKN075 18/14 A2978 RMK CU1SC4AC3 SLP086▲ Up
2S4112KLAX EDDP EKCH CYYR BIKF▼ Dn
Q03910[LINK ACK]▲ Up
Q03910[LINK TEST]▼ Dn


AIRCRAFT HISTORY
FLIGHT DATE FLIGHT NO. ORIGIN DESTINATION CLEARED ROUTE BLOCK TIME FLIGHT TIME FUEL USED PILOT
2022-06-25SOO423KLAX EDDP KLAX BEALE BLIPP WINEN MLF MTU OCS CZI BIS HML YRL 5390N GW 5670N YDP AVUTI 5850N 5940N 5930N 5820N PIKIL MOGLO NIBOG BELZU REMSI BELOX TENSO DESIG ELNOD MAMUL EDUXO LAMIX EVKAL ROGAG AMVEL DOLAS ENITO DIBAL BUKUT LAMSO AMSAN NORTA ADMOS KENIG KOJEC EDDP10.5 hrs10.4 hrs187,515 lbAllan Burek
2022-06-24SOO96RKSI KLAX RKSI EGOBA KARBU TORUS BIKSI KAE PILIT NIMUS AGSUS LANAT DISSH SAMON KMC DAIGO BEKPO PABBA DOVIX ADNAP KALNA 41E60 42E70 44E80 46N70 46N60 43N50 41N40 39N30 DACEM PAINT PIRAT BURGL KLAX10.9 hrs10.8 hrs181,969 lbAllan Burek
2021-09-30SSO221KLAX RKSI HIIPR EVOSE MKGEE DARRK SUMMR OLOFF RIZIN TESEA SCTRR PYE NIECE OED HQM WAPTO TOU FINGS JOWEN LOHNE ARCAL 59N60 PUGGY CREMR EXAMY 50E70 CUTEE KALIG KALNA NODAN LIDEL 00ZYT SKIPE HAIJI TAXUK 37E36 SAMON SUGNO SAPRA BULGA KPO ELAPI CUN BIGOB BASEM ENSAL GUKDO13.1 hrs12.7 hrs0 lbAlex K.
2021-07-18SOO9714KDEN KLAX KDEN TEHRU JASSE AREAF ESGEE DNERO KLAX2.1 hrs1.8 hrs26,644 lbAllan Burek
2021-03-08SOO308KMSY KDEN KMSY AEX EIC DECOD PLATE ATOKA IRW MMB HALEN KDEN2.6 hrs2.3 hrs40,794 lbAaron Buchanan
2021-03-01SOO301KMIA KMSY KMIA WINCO CHRRI DOLIE SRQ JONBU CHRGE REMIS ROZZI NAITE REDFN FATSO HRV KMSY1.8 hrs1.6 hrs29,256 lbAaron Buchanan